createdAt,value
2022-11-26T00:02:19.007Z,16.70
2022-11-26T00:04:47.822Z,20.05
2022-11-26T00:07:21.672Z,21.02
2022-11-26T00:09:50.984Z,18.60
2022-11-26T00:12:21.888Z,17.95
2022-11-26T00:14:50.853Z,16.73
2022-11-26T00:17:23.057Z,18.13
2022-11-26T00:19:51.738Z,17.77
2022-11-26T00:22:25.388Z,16.92
2022-11-26T00:24:55.112Z,17.50
2022-11-26T00:29:53.623Z,15.18
2022-11-26T00:32:26.102Z,15.18
2022-11-26T00:34:55.395Z,15.93
2022-11-26T00:37:26.176Z,17.90
2022-11-26T00:39:55.104Z,16.65
2022-11-26T00:42:23.808Z,17.63
2022-11-26T00:44:52.388Z,18.23
2022-11-26T00:47:22.369Z,15.88
2022-11-26T00:49:51.129Z,18.23
2022-11-26T00:52:28.758Z,19.13
2022-11-26T00:54:57.540Z,17.17
2022-11-26T00:57:26.243Z,16.42
2022-11-26T00:59:54.837Z,17.65
2022-11-26T01:02:24.921Z,19.25
2022-11-26T01:04:53.524Z,16.90
2022-11-26T01:07:22.139Z,19.65
2022-11-26T01:09:51.234Z,18.88
2022-11-26T01:12:19.815Z,18.23
2022-11-26T01:14:48.435Z,18.52
2022-11-26T01:17:17.036Z,15.68
2022-11-26T01:19:47.039Z,17.85
2022-11-26T01:22:22.164Z,18.75
2022-11-26T01:24:51.190Z,21.83
2022-11-26T01:27:21.467Z,17.88
2022-11-26T01:29:50.209Z,20.63
2022-11-26T01:32:18.807Z,14.52
2022-11-26T01:34:48.891Z,17.88
2022-11-26T01:37:17.488Z,20.00
2022-11-26T01:39:46.109Z,16.42
2022-11-26T01:42:25.973Z,19.75
2022-11-26T01:44:54.564Z,17.77
2022-11-26T01:47:25.458Z,17.88
2022-11-26T01:50:48.316Z,17.63
2022-11-26T01:53:22.835Z,18.00
2022-11-26T01:55:53.837Z,16.55
2022-11-26T01:58:26.300Z,18.88
2022-11-26T02:00:55.127Z,18.65
2022-11-26T02:03:24.811Z,19.38
2022-11-26T02:05:59.971Z,21.40
2022-11-26T02:08:31.437Z,18.23
2022-11-26T02:11:00.153Z,19.77
2022-11-26T02:13:29.180Z,15.68
2022-11-26T02:16:09.964Z,17.05
2022-11-26T02:18:45.613Z,18.00
2022-11-26T02:21:22.245Z,19.00
2022-11-26T02:24:14.110Z,18.95
2022-11-26T02:27:18.062Z,20.08
2022-11-26T02:30:02.530Z,15.18
2022-11-26T02:32:39.783Z,16.63
2022-11-26T02:35:14.378Z,19.70
2022-11-26T02:37:49.125Z,18.92
2022-11-26T02:40:18.976Z,18.73
2022-11-26T02:45:21.291Z,17.30
2022-11-26T02:47:54.200Z,18.55
2022-11-26T02:50:26.337Z,18.50
2022-11-26T02:52:58.524Z,19.77
2022-11-26T02:55:30.833Z,18.23
2022-11-26T02:58:00.115Z,19.15
2022-11-26T03:00:30.105Z,18.45
2022-11-26T03:03:03.089Z,19.38
2022-11-26T03:05:36.807Z,18.15
2022-11-26T03:08:06.944Z,19.15
2022-11-26T03:10:48.829Z,19.35
2022-11-26T03:13:29.654Z,19.33
2022-11-26T03:16:00.882Z,19.92
2022-11-26T03:18:29.546Z,19.70
2022-11-26T03:20:58.146Z,20.85
2022-11-26T03:23:26.786Z,21.48
2022-11-26T03:25:55.410Z,20.20
2022-11-26T03:28:24.053Z,20.20
2022-11-26T03:30:53.406Z,20.38
2022-11-26T03:33:24.047Z,17.05
2022-11-26T03:35:52.735Z,18.00
2022-11-26T03:38:21.286Z,23.10
2022-11-26T03:40:57.955Z,22.27
2022-11-26T03:43:26.515Z,20.77
2022-11-26T03:45:55.535Z,20.05
2022-11-26T03:48:26.838Z,17.75
2022-11-26T03:50:55.492Z,19.27
2022-11-26T03:53:24.125Z,17.58
2022-11-26T03:55:52.817Z,19.25
2022-11-26T03:58:21.381Z,17.48
2022-11-26T04:00:49.981Z,20.23
2022-11-26T04:03:18.703Z,20.67
2022-11-26T04:05:48.827Z,18.05
2022-11-26T04:08:17.409Z,19.80
2022-11-26T04:10:46.089Z,19.33
2022-11-26T04:13:14.752Z,21.10
2022-11-26T04:15:43.354Z,19.38
2022-11-26T04:18:11.977Z,20.88
2022-11-26T04:20:40.640Z,21.35
2022-11-26T04:23:10.781Z,21.23
2022-11-26T04:25:39.437Z,22.92
2022-11-26T04:28:08.009Z,22.27
2022-11-26T04:30:36.594Z,21.92
2022-11-26T04:33:05.246Z,22.63
2022-11-26T04:35:33.847Z,21.90
2022-11-26T04:38:02.483Z,20.75
2022-11-26T04:40:32.431Z,27.23
2022-11-26T04:43:01.087Z,21.83
2022-11-26T04:45:29.721Z,24.00
2022-11-26T04:47:58.481Z,20.13
2022-11-26T04:50:27.092Z,22.52
2022-11-26T04:52:55.793Z,18.98
2022-11-26T04:55:24.571Z,20.98
2022-11-26T04:57:54.888Z,26.93
2022-11-26T05:00:23.712Z,18.63
2022-11-26T05:02:52.318Z,21.13
2022-11-26T05:05:21.012Z,18.05
2022-11-26T05:07:49.584Z,18.30
2022-11-26T05:10:18.416Z,19.77
2022-11-26T05:12:47.020Z,18.42
2022-11-26T05:15:17.230Z,16.45
2022-11-26T05:17:45.983Z,16.92
2022-11-26T05:20:15.257Z,18.02
2022-11-26T05:22:44.278Z,17.55
2022-11-26T05:25:13.276Z,18.33
2022-11-26T05:27:42.268Z,16.52
2022-11-26T05:30:11.813Z,17.92
2022-11-26T05:32:43.281Z,16.73
2022-11-26T05:35:12.289Z,19.92
2022-11-26T05:37:40.977Z,18.65
2022-11-26T05:40:11.001Z,19.60
2022-11-26T05:42:40.083Z,18.48
2022-11-26T05:45:09.551Z,16.43
2022-11-26T05:47:38.111Z,19.35
2022-11-26T05:50:10.411Z,17.85
2022-11-26T05:52:39.013Z,18.27
2022-11-26T05:55:09.297Z,17.50
2022-11-26T05:57:39.215Z,30.48
2022-11-26T06:00:10.620Z,67.28
2022-11-26T06:02:43.379Z,46.25
2022-11-26T06:05:13.949Z,41.13
2022-11-26T06:07:45.063Z,34.20
2022-11-26T06:10:14.653Z,28.20
2022-11-26T06:12:43.195Z,23.83
2022-11-26T06:15:12.273Z,20.85
2022-11-26T06:17:40.922Z,22.63
2022-11-26T06:20:10.304Z,20.65
2022-11-26T06:22:41.665Z,18.95
2022-11-26T06:25:12.593Z,20.13
2022-11-26T06:27:41.865Z,19.80
2022-11-26T06:30:12.780Z,17.45
2022-11-26T06:32:41.395Z,19.23
2022-11-26T06:35:12.017Z,17.65
2022-11-26T06:37:42.184Z,20.00
2022-11-26T06:40:17.830Z,20.50
2022-11-26T06:42:50.225Z,20.20
2022-11-26T06:45:20.759Z,17.75
2022-11-26T06:47:50.837Z,20.65
2022-11-26T06:50:22.014Z,20.27
2022-11-26T06:52:54.161Z,19.90
2022-11-26T06:55:23.036Z,21.60
2022-11-26T06:57:52.434Z,22.67
2022-11-26T07:00:22.145Z,19.02
2022-11-26T07:05:19.214Z,19.27
2022-11-26T07:07:47.919Z,22.92
2022-11-26T07:10:18.344Z,23.55
2022-11-26T07:12:47.037Z,69.95
2022-11-26T07:15:15.739Z,108.88
2022-11-26T07:17:44.318Z,92.03
2022-11-26T07:20:14.108Z,74.18
2022-11-26T07:25:12.867Z,50.00
2022-11-26T07:27:43.047Z,31.73
2022-11-26T07:30:13.023Z,28.88
2022-11-26T07:32:41.641Z,23.42
2022-11-26T07:35:18.048Z,22.02
2022-11-26T07:37:46.722Z,22.37
2022-11-26T07:40:16.938Z,20.73
2022-11-26T07:42:51.777Z,22.08
2022-11-26T07:45:26.068Z,21.55
2022-11-26T07:47:54.726Z,20.50
2022-11-26T07:50:23.367Z,22.95
2022-11-26T07:52:53.407Z,20.15
2022-11-26T07:55:22.065Z,23.08
2022-11-26T07:57:52.044Z,21.90
2022-11-26T08:00:21.474Z,22.65
2022-11-26T08:02:50.220Z,20.02
2022-11-26T08:05:19.029Z,22.42
2022-11-26T08:07:47.645Z,21.35
2022-11-26T08:10:16.285Z,21.80
2022-11-26T08:12:45.727Z,24.60
2022-11-26T08:15:15.727Z,21.85
2022-11-26T08:17:44.333Z,22.92
2022-11-26T08:20:13.592Z,26.05
2022-11-26T08:22:42.288Z,26.15
2022-11-26T08:25:11.371Z,26.17
2022-11-26T08:27:40.171Z,23.52
2022-11-26T08:30:09.766Z,29.10
2022-11-26T08:32:39.772Z,22.58
2022-11-26T08:35:08.947Z,25.75
2022-11-26T08:37:37.727Z,25.02
2022-11-26T08:40:07.700Z,23.08
2022-11-26T08:42:36.298Z,24.60
2022-11-26T08:45:06.758Z,23.13
2022-11-26T08:47:35.365Z,25.48
2022-11-26T08:50:05.794Z,25.55
2022-11-26T08:52:34.339Z,29.83
2022-11-26T08:55:03.008Z,25.33
2022-11-26T08:57:31.703Z,26.13
2022-11-26T09:00:01.306Z,29.05
2022-11-26T09:02:29.905Z,25.48
2022-11-26T09:04:58.580Z,27.63
2022-11-26T09:07:29.682Z,27.25
2022-11-26T09:09:58.472Z,26.77
2022-11-26T09:12:27.077Z,26.83
2022-11-26T09:14:55.859Z,24.67
2022-11-26T09:17:24.469Z,23.42
2022-11-26T09:19:53.287Z,23.47
2022-11-26T09:22:21.895Z,22.85
2022-11-26T09:24:52.400Z,25.48
2022-11-26T09:27:20.947Z,24.88
2022-11-26T09:29:49.509Z,22.80
2022-11-26T09:32:29.659Z,21.00
2022-11-26T09:35:02.492Z,23.05
2022-11-26T09:37:32.677Z,24.17
2022-11-26T09:40:02.741Z,24.00
2022-11-26T09:42:45.760Z,28.08
2022-11-26T09:45:27.800Z,28.13
2022-11-26T09:47:56.519Z,23.45
2022-11-26T09:50:29.158Z,19.98
2022-11-26T09:53:02.681Z,25.58
2022-11-26T09:55:36.015Z,21.08
2022-11-26T09:58:11.959Z,20.88
2022-11-26T10:00:42.122Z,23.80
2022-11-26T10:03:15.371Z,23.90
2022-11-26T10:05:50.643Z,22.98
2022-11-26T10:08:33.431Z,24.98
2022-11-26T10:11:08.671Z,28.52
2022-11-26T10:13:45.618Z,27.38
2022-11-26T10:16:26.521Z,28.10
2022-11-26T10:19:03.744Z,30.15
2022-11-26T10:21:58.240Z,29.25
2022-11-26T10:24:31.053Z,28.58
2022-11-26T10:27:02.982Z,23.25
2022-11-26T10:29:39.648Z,24.98
2022-11-26T10:32:15.951Z,29.33
2022-11-26T10:34:50.895Z,25.55
2022-11-26T10:37:23.307Z,22.67
2022-11-26T10:40:00.924Z,26.20
2022-11-26T10:45:20.084Z,26.58
2022-11-26T10:47:48.768Z,20.83
2022-11-26T10:53:22.668Z,24.48
2022-11-26T10:55:53.208Z,23.52
2022-11-26T10:58:26.834Z,23.60
2022-11-26T11:01:03.774Z,26.48
2022-11-26T11:06:48.389Z,22.67
2022-11-26T11:09:32.495Z,23.95
2022-11-26T11:12:22.097Z,25.08
2022-11-26T11:14:53.287Z,25.10
2022-11-26T11:17:34.023Z,24.13
2022-11-26T11:20:25.477Z,19.00
2022-11-26T11:23:07.390Z,21.98
2022-11-26T11:25:38.075Z,23.70
2022-11-26T11:28:15.529Z,20.75
2022-11-26T11:30:46.384Z,23.65
2022-11-26T11:33:22.665Z,25.00
2022-11-26T11:36:07.099Z,22.98
2022-11-26T11:38:48.738Z,21.40
2022-11-26T11:41:25.086Z,26.23
2022-11-26T11:44:03.141Z,23.08
2022-11-26T11:47:00.197Z,25.40
2022-11-26T11:49:43.941Z,22.80
2022-11-26T11:52:22.595Z,23.00
2022-11-26T11:55:00.231Z,24.52
2022-11-26T11:57:54.789Z,22.02
2022-11-26T12:00:25.268Z,23.33
2022-11-26T12:03:16.134Z,23.30
2022-11-26T12:05:59.256Z,25.17
2022-11-26T12:08:37.239Z,20.88
2022-11-26T12:11:23.985Z,21.55
2022-11-26T12:13:56.113Z,22.40
2022-11-26T12:16:28.723Z,22.48
2022-11-26T12:19:03.475Z,24.83
2022-11-26T12:21:39.373Z,22.65
2022-11-26T12:24:14.483Z,20.63
2022-11-26T12:26:48.305Z,22.13
2022-11-26T12:29:25.539Z,24.67
2022-11-26T12:31:58.091Z,21.60
2022-11-26T12:34:33.528Z,23.15
2022-11-26T12:37:05.587Z,22.75
2022-11-26T12:39:46.059Z,23.60
2022-11-26T12:42:23.719Z,24.63
2022-11-26T12:44:54.630Z,20.77
2022-11-26T12:47:27.323Z,20.92
2022-11-26T12:50:10.583Z,22.33
2022-11-26T12:52:45.479Z,23.85
2022-11-26T12:55:21.586Z,21.10
2022-11-26T12:57:54.185Z,21.23
2022-11-26T13:00:30.118Z,23.30
2022-11-26T13:03:01.707Z,21.67
2022-11-26T13:05:37.921Z,22.00
2022-11-26T13:08:23.218Z,21.77
2022-11-26T13:11:10.602Z,22.95
2022-11-26T13:13:49.595Z,27.20
2022-11-26T13:16:25.831Z,23.95
2022-11-26T13:19:00.648Z,22.00
2022-11-26T13:21:58.739Z,22.65
2022-11-26T13:24:45.553Z,23.98
2022-11-26T13:27:25.607Z,29.85
2022-11-26T13:30:18.777Z,33.92
2022-11-26T13:33:23.622Z,28.83
2022-11-26T13:36:18.414Z,29.35
2022-11-26T13:39:06.355Z,27.80
2022-11-26T13:42:00.530Z,25.77
2022-11-26T13:44:59.435Z,22.77
2022-11-26T13:47:33.377Z,23.08
2022-11-26T13:50:07.907Z,20.27
2022-11-26T13:52:40.935Z,18.27
2022-11-26T13:55:17.699Z,21.20
2022-11-26T13:57:48.909Z,19.17
2022-11-26T14:00:26.877Z,15.82
2022-11-26T14:02:55.714Z,19.98
2022-11-26T14:05:24.482Z,22.90
2022-11-26T14:08:12.986Z,18.45
2022-11-26T14:10:45.924Z,22.20
2022-11-26T14:13:18.822Z,16.25
2022-11-26T14:15:56.089Z,21.17
2022-11-26T14:18:59.076Z,18.05
2022-11-26T14:21:28.800Z,20.13
2022-11-26T14:23:59.139Z,21.23
2022-11-26T14:26:31.713Z,19.73
2022-11-26T14:29:17.627Z,19.00
2022-11-26T14:31:52.212Z,19.33
2022-11-26T14:34:28.564Z,15.15
2022-11-26T14:36:58.984Z,16.33
2022-11-26T14:39:29.536Z,16.65
2022-11-26T14:42:05.689Z,15.23
2022-11-26T14:44:35.071Z,16.17
2022-11-26T14:47:12.389Z,14.80
2022-11-26T14:49:45.181Z,17.80
2022-11-26T14:52:20.697Z,16.45
2022-11-26T14:54:53.651Z,14.05
2022-11-26T14:57:27.486Z,13.35
2022-11-26T14:59:59.474Z,16.00
2022-11-26T15:02:29.823Z,17.75
2022-11-26T15:05:01.311Z,14.77
2022-11-26T15:07:31.156Z,14.20
2022-11-26T15:10:05.460Z,15.88
2022-11-26T15:12:37.598Z,12.95
2022-11-26T15:15:07.552Z,16.30
2022-11-26T15:17:36.993Z,15.18
2022-11-26T15:20:14.471Z,17.17
2022-11-26T15:22:48.911Z,14.82
2022-11-26T15:25:20.582Z,18.58
2022-11-26T15:28:01.809Z,16.10
2022-11-26T15:30:32.344Z,21.10
2022-11-26T15:33:03.413Z,15.95
2022-11-26T15:35:33.480Z,20.05
2022-11-26T15:38:02.383Z,15.88
2022-11-26T15:40:33.299Z,16.93
2022-11-26T15:43:05.507Z,15.48
2022-11-26T15:45:41.402Z,16.05
2022-11-26T15:48:27.764Z,17.83
2022-11-26T15:51:01.794Z,17.10
2022-11-26T15:53:34.387Z,17.80
2022-11-26T15:56:03.978Z,20.00
2022-11-26T15:58:37.322Z,17.75
2022-11-26T16:01:23.452Z,18.15
2022-11-26T16:03:53.179Z,17.40
2022-11-26T16:06:42.805Z,17.77
2022-11-26T16:09:28.176Z,21.70
2022-11-26T16:12:02.009Z,19.65
2022-11-26T16:14:34.260Z,19.75
2022-11-26T16:17:08.536Z,20.00
2022-11-26T16:19:38.563Z,19.52
2022-11-26T16:22:08.159Z,22.40
2022-11-26T16:24:40.864Z,22.90
2022-11-26T16:27:26.949Z,32.20
2022-11-26T16:29:57.768Z,33.45
2022-11-26T16:32:27.080Z,43.10
2022-11-26T16:34:55.749Z,40.90
2022-11-26T16:37:26.085Z,29.17
2022-11-26T16:40:02.984Z,23.92
2022-11-26T16:42:33.899Z,23.67
2022-11-26T16:45:04.480Z,22.38
2022-11-26T16:47:37.129Z,22.27
2022-11-26T16:50:13.328Z,46.22
2022-11-26T16:52:43.329Z,118.00
2022-11-26T16:55:13.932Z,79.32
2022-11-26T16:57:43.473Z,38.85
2022-11-26T17:00:19.072Z,27.85
2022-11-26T17:02:48.377Z,25.63
2022-11-26T17:05:18.056Z,19.85
2022-11-26T17:07:49.493Z,20.38
2022-11-26T17:10:19.043Z,21.67
2022-11-26T17:12:47.710Z,21.60
2022-11-26T17:15:18.425Z,21.42
2022-11-26T17:17:47.572Z,23.52
2022-11-26T17:20:17.887Z,28.52
2022-11-26T17:22:46.709Z,28.58
2022-11-26T17:25:15.866Z,29.20
2022-11-26T17:27:45.026Z,37.05
2022-11-26T17:30:18.876Z,38.30
2022-11-26T17:32:47.820Z,57.75
2022-11-26T17:35:16.711Z,49.03
2022-11-26T17:37:45.621Z,60.90
2022-11-26T17:40:18.438Z,69.27
2022-11-26T17:42:47.741Z,69.85
2022-11-26T17:45:18.779Z,75.65
2022-11-26T17:47:47.940Z,67.57
2022-11-26T17:50:20.402Z,50.25
2022-11-26T17:52:49.961Z,43.78
2022-11-26T17:55:20.478Z,32.83
2022-11-26T17:57:50.247Z,33.00
2022-11-26T18:02:52.155Z,43.63
2022-11-26T18:05:21.177Z,64.50
2022-11-26T18:07:50.905Z,105.50
2022-11-26T18:12:50.653Z,80.75
2022-11-26T18:15:22.022Z,54.75
2022-11-26T18:17:52.334Z,33.35
2022-11-26T18:20:23.439Z,28.33
2022-11-26T18:22:52.733Z,26.13
2022-11-26T18:25:21.953Z,22.20
2022-11-26T18:27:50.855Z,25.95
2022-11-26T18:30:21.775Z,22.53
2022-11-26T18:32:50.609Z,23.77
2022-11-26T18:35:19.379Z,20.30
2022-11-26T18:37:48.182Z,19.43
2022-11-26T18:40:18.193Z,20.00
2022-11-26T18:42:46.803Z,23.38
2022-11-26T18:45:16.801Z,21.98
2022-11-26T18:47:46.778Z,88.22
2022-11-26T18:50:15.709Z,124.10
2022-11-26T18:52:44.626Z,107.70
2022-11-26T18:55:15.425Z,86.10
2022-11-26T18:57:45.282Z,47.88
2022-11-26T19:00:16.797Z,36.38
2022-11-26T19:02:46.955Z,47.45
2022-11-26T19:05:16.264Z,50.25
2022-11-26T19:07:44.837Z,35.17
2022-11-26T19:10:13.870Z,40.78
2022-11-26T19:12:42.440Z,34.83
2022-11-26T19:15:11.308Z,56.28
2022-11-26T19:17:39.870Z,47.07
2022-11-26T19:20:13.899Z,29.52
2022-11-26T19:22:42.569Z,21.85
2022-11-26T19:25:11.185Z,18.83
2022-11-26T19:27:39.850Z,28.65
2022-11-26T19:30:10.430Z,39.88
2022-11-26T19:32:39.245Z,31.30
2022-11-26T19:35:08.752Z,19.42
2022-11-26T19:37:41.110Z,18.10
2022-11-26T19:40:10.929Z,19.05
2022-11-26T19:42:39.476Z,18.58
2022-11-26T19:45:09.151Z,19.88
2022-11-26T19:50:07.447Z,20.23
2022-11-26T19:52:36.168Z,21.77
2022-11-26T19:55:07.250Z,19.73
2022-11-26T19:57:35.906Z,25.00
2022-11-26T20:00:10.885Z,19.35
2022-11-26T20:02:39.808Z,17.77
2022-11-26T20:05:09.198Z,24.23
2022-11-26T20:07:38.136Z,20.92
2022-11-26T20:10:09.650Z,18.97
2022-11-26T20:12:38.201Z,21.35
2022-11-26T20:15:07.760Z,21.88
2022-11-26T20:17:36.302Z,23.80
2022-11-26T20:20:05.529Z,19.50
2022-11-26T20:22:36.988Z,20.02
2022-11-26T20:25:09.432Z,20.25
2022-11-26T20:27:39.991Z,20.48
2022-11-26T20:30:09.843Z,24.38
2022-11-26T20:35:07.966Z,22.38
2022-11-26T20:37:36.628Z,23.95
2022-11-26T20:40:06.078Z,21.73
2022-11-26T20:42:36.221Z,23.63
2022-11-26T20:45:05.235Z,31.67
2022-11-26T20:47:40.940Z,34.47
2022-11-26T20:50:11.969Z,25.00
2022-11-26T20:52:40.535Z,28.45
2022-11-26T20:55:10.322Z,25.33
2022-11-26T21:00:10.413Z,26.33
2022-11-26T21:02:40.427Z,26.67
2022-11-26T21:05:10.386Z,26.38
2022-11-26T21:10:09.206Z,26.83
2022-11-26T21:12:39.817Z,24.88
2022-11-26T21:15:09.664Z,24.30
2022-11-26T21:17:38.866Z,24.85
2022-11-26T21:20:09.495Z,39.65
2022-11-26T21:22:39.918Z,34.55
2022-11-26T21:25:09.231Z,31.33
2022-11-26T21:27:40.024Z,36.60
2022-11-26T21:30:10.239Z,26.38
2022-11-26T21:32:39.266Z,29.55
2022-11-26T21:35:08.480Z,29.30
2022-11-26T21:37:37.062Z,37.33
2022-11-26T21:40:06.351Z,38.53
2022-11-26T21:42:35.125Z,37.95
2022-11-26T21:45:05.826Z,28.95
2022-11-26T21:47:34.427Z,27.98
2022-11-26T21:50:03.174Z,26.08
2022-11-26T21:52:31.762Z,24.75
2022-11-26T21:55:03.605Z,24.33
2022-11-26T21:57:33.034Z,21.95
2022-11-26T22:00:01.711Z,19.67
2022-11-26T22:02:31.822Z,23.05
2022-11-26T22:05:00.480Z,19.77
2022-11-26T22:07:30.284Z,21.45
2022-11-26T22:09:59.047Z,20.83
2022-11-26T22:12:27.809Z,19.27
2022-11-26T22:14:56.377Z,21.15
2022-11-26T22:17:24.938Z,22.02
2022-11-26T22:19:54.959Z,21.08
2022-11-26T22:22:23.642Z,24.25
2022-11-26T22:24:52.205Z,21.00
2022-11-26T22:27:20.731Z,23.30
2022-11-26T22:29:49.743Z,21.48
2022-11-26T22:32:18.280Z,19.17
2022-11-26T22:34:46.891Z,20.05
2022-11-26T22:37:17.419Z,21.17
2022-11-26T22:39:49.835Z,18.50
2022-11-26T22:42:21.093Z,21.65
2022-11-26T22:44:49.673Z,20.30
2022-11-26T22:47:18.183Z,16.88
2022-11-26T22:49:46.738Z,20.10
2022-11-26T22:52:16.832Z,21.10
2022-11-26T22:54:45.427Z,21.80
2022-11-26T22:57:14.484Z,21.63
2022-11-26T22:59:44.282Z,21.48
2022-11-26T23:04:41.296Z,21.20
2022-11-26T23:07:09.926Z,21.38
2022-11-26T23:09:45.314Z,22.33
2022-11-26T23:12:15.318Z,22.08
2022-11-26T23:14:44.940Z,17.48
2022-11-26T23:17:13.965Z,20.10
2022-11-26T23:19:42.713Z,18.25
2022-11-26T23:22:11.423Z,18.53
2022-11-26T23:24:41.398Z,19.88
2022-11-26T23:27:10.232Z,24.40
2022-11-26T23:29:39.060Z,21.98
2022-11-26T23:32:07.751Z,23.60
2022-11-26T23:34:36.260Z,23.30
2022-11-26T23:37:04.917Z,24.35
2022-11-26T23:39:33.513Z,23.48
2022-11-26T23:42:03.504Z,23.33
2022-11-26T23:44:31.986Z,22.27
2022-11-26T23:47:00.574Z,25.77
2022-11-26T23:49:29.209Z,25.38
2022-11-26T23:51:58.136Z,22.70
2022-11-26T23:54:26.888Z,22.33
2022-11-26T23:56:55.409Z,24.63
2022-11-26T23:59:25.409Z,20.38
